sensor_id;sensor_type;location;lat;lon;timestamp;temperature;humidity
86008;SHT30;76587;41.936;25.550;2024-03-23T00:56:14;2.78;72.62
86008;SHT30;76587;41.936;25.550;2024-03-23T00:58:39;2.73;72.84
86008;SHT30;76587;41.936;25.550;2024-03-23T01:01:05;2.73;73.26
86008;SHT30;76587;41.936;25.550;2024-03-23T01:03:30;2.73;73.34
86008;SHT30;76587;41.936;25.550;2024-03-23T01:06:01;2.72;73.38
86008;SHT30;76587;41.936;25.550;2024-03-23T01:08:27;2.72;73.30
86008;SHT30;76587;41.936;25.550;2024-03-23T01:10:56;2.66;73.87
86008;SHT30;76587;41.936;25.550;2024-03-23T01:13:21;2.65;73.97
86008;SHT30;76587;41.936;25.550;2024-03-23T01:15:49;2.62;74.09
86008;SHT30;76587;41.936;25.550;2024-03-23T01:18:14;2.56;74.11
86008;SHT30;76587;41.936;25.550;2024-03-23T01:20:39;2.46;74.16
86008;SHT30;76587;41.936;25.550;2024-03-23T01:23:05;2.44;73.88
86008;SHT30;76587;41.936;25.550;2024-03-23T01:25:33;2.35;73.47
86008;SHT30;76587;41.936;25.550;2024-03-23T01:28:01;2.31;73.47
86008;SHT30;76587;41.936;25.550;2024-03-23T01:30:26;2.24;73.34
86008;SHT30;76587;41.936;25.550;2024-03-23T01:32:52;2.14;73.43
86008;SHT30;76587;41.936;25.550;2024-03-23T01:35:17;1.98;74.14
86008;SHT30;76587;41.936;25.550;2024-03-23T01:37:43;1.95;74.34
86008;SHT30;76587;41.936;25.550;2024-03-23T01:40:09;1.94;74.56
86008;SHT30;76587;41.936;25.550;2024-03-23T01:42:34;1.90;74.88
86008;SHT30;76587;41.936;25.550;2024-03-23T01:45:00;1.85;74.82
86008;SHT30;76587;41.936;25.550;2024-03-23T01:47:25;1.78;74.80
86008;SHT30;76587;41.936;25.550;2024-03-23T01:49:52;1.68;75.19
86008;SHT30;76587;41.936;25.550;2024-03-23T01:52:17;1.68;75.36
86008;SHT30;76587;41.936;25.550;2024-03-23T01:54:43;1.60;75.52
86008;SHT30;76587;41.936;25.550;2024-03-23T01:57:10;1.57;75.78
86008;SHT30;76587;41.936;25.550;2024-03-23T01:59:35;1.47;76.06
86008;SHT30;76587;41.936;25.550;2024-03-23T02:02:01;1.46;76.35
86008;SHT30;76587;41.936;25.550;2024-03-23T02:04:26;1.43;76.38
86008;SHT30;76587;41.936;25.550;2024-03-23T02:06:52;1.42;76.42
86008;SHT30;76587;41.936;25.550;2024-03-23T02:09:19;1.39;76.61
86008;SHT30;76587;41.936;25.550;2024-03-23T02:11:45;1.40;76.63
86008;SHT30;76587;41.936;25.550;2024-03-23T02:14:12;1.37;76.41
86008;SHT30;76587;41.936;25.550;2024-03-23T02:16:38;1.36;76.23
86008;SHT30;76587;41.936;25.550;2024-03-23T02:19:03;1.40;75.96
86008;SHT30;76587;41.936;25.550;2024-03-23T02:21:34;1.36;75.65
86008;SHT30;76587;41.936;25.550;2024-03-23T02:24:00;1.37;75.28
86008;SHT30;76587;41.936;25.550;2024-03-23T02:26:26;1.33;74.84
86008;SHT30;76587;41.936;25.550;2024-03-23T02:28:51;1.30;74.70
86008;SHT30;76587;41.936;25.550;2024-03-23T02:31:16;1.25;74.68
86008;SHT30;76587;41.936;25.550;2024-03-23T02:33:42;1.20;74.66
86008;SHT30;76587;41.936;25.550;2024-03-23T02:36:07;1.12;74.37
86008;SHT30;76587;41.936;25.550;2024-03-23T02:38:33;1.05;74.63
86008;SHT30;76587;41.936;25.550;2024-03-23T02:41:07;0.95;75.34
86008;SHT30;76587;41.936;25.550;2024-03-23T02:43:33;0.86;75.88
86008;SHT30;76587;41.936;25.550;2024-03-23T02:45:58;0.85;76.27
86008;SHT30;76587;41.936;25.550;2024-03-23T02:48:24;0.85;76.19
86008;SHT30;76587;41.936;25.550;2024-03-23T02:50:49;0.78;76.09
86008;SHT30;76587;41.936;25.550;2024-03-23T02:53:15;0.79;76.16
86008;SHT30;76587;41.936;25.550;2024-03-23T02:55:43;0.73;76.28
86008;SHT30;76587;41.936;25.550;2024-03-23T02:58:08;0.71;76.49
86008;SHT30;76587;41.936;25.550;2024-03-23T03:00:34;0.66;76.28
86008;SHT30;76587;41.936;25.550;2024-03-23T03:02:59;0.59;76.08
86008;SHT30;76587;41.936;25.550;2024-03-23T03:05:24;0.59;76.26
86008;SHT30;76587;41.936;25.550;2024-03-23T03:07:50;0.58;76.25
86008;SHT30;76587;41.936;25.550;2024-03-23T03:10:15;0.57;76.78
86008;SHT30;76587;41.936;25.550;2024-03-23T03:12:41;0.52;76.77
86008;SHT30;76587;41.936;25.550;2024-03-23T03:15:08;0.51;76.97
86008;SHT30;76587;41.936;25.550;2024-03-23T03:17:34;0.48;76.78
86008;SHT30;76587;41.936;25.550;2024-03-23T03:20:00;0.45;76.75
86008;SHT30;76587;41.936;25.550;2024-03-23T03:22:25;0.41;76.88
86008;SHT30;76587;41.936;25.550;2024-03-23T03:24:51;0.38;76.96
86008;SHT30;76587;41.936;25.550;2024-03-23T03:27:18;0.40;77.22
86008;SHT30;76587;41.936;25.550;2024-03-23T03:29:44;0.40;77.29
86008;SHT30;76587;41.936;25.550;2024-03-23T03:32:10;0.38;77.33
86008;SHT30;76587;41.936;25.550;2024-03-23T03:34:38;0.38;77.01
86008;SHT30;76587;41.936;25.550;2024-03-23T03:37:04;0.34;77.20
86008;SHT30;76587;41.936;25.550;2024-03-23T03:39:31;0.32;77.17
86008;SHT30;76587;41.936;25.550;2024-03-23T03:41:57;0.29;77.39
86008;SHT30;76587;41.936;25.550;2024-03-23T03:44:25;0.22;77.44
86008;SHT30;76587;41.936;25.550;2024-03-23T03:46:51;0.21;77.56
86008;SHT30;76587;41.936;25.550;2024-03-23T03:49:16;0.17;77.45
86008;SHT30;76587;41.936;25.550;2024-03-23T03:51:42;0.13;77.74
86008;SHT30;76587;41.936;25.550;2024-03-23T03:54:10;0.10;77.99
86008;SHT30;76587;41.936;25.550;2024-03-23T03:56:35;0.08;78.22
86008;SHT30;76587;41.936;25.550;2024-03-23T03:59:01;0.07;78.25
86008;SHT30;76587;41.936;25.550;2024-03-23T04:01:26;0.08;78.15
86008;SHT30;76587;41.936;25.550;2024-03-23T04:03:51;0.04;78.25
86008;SHT30;76587;41.936;25.550;2024-03-23T04:06:20;0.04;78.42
86008;SHT30;76587;41.936;25.550;2024-03-23T04:08:46;0.00;78.61
86008;SHT30;76587;41.936;25.550;2024-03-23T04:11:11;-0.05;78.65
86008;SHT30;76587;41.936;25.550;2024-03-23T04:13:37;-0.06;78.98
86008;SHT30;76587;41.936;25.550;2024-03-23T04:16:02;0.00;79.10
86008;SHT30;76587;41.936;25.550;2024-03-23T04:18:28;0.03;78.70
86008;SHT30;76587;41.936;25.550;2024-03-23T04:20:53;0.05;78.40
86008;SHT30;76587;41.936;25.550;2024-03-23T04:23:19;0.03;78.30
86008;SHT30;76587;41.936;25.550;2024-03-23T04:25:44;0.05;78.25
86008;SHT30;76587;41.936;25.550;2024-03-23T04:28:10;0.07;78.06
86008;SHT30;76587;41.936;25.550;2024-03-23T04:30:35;0.13;77.66
86008;SHT30;76587;41.936;25.550;2024-03-23T04:33:05;0.17;77.37
86008;SHT30;76587;41.936;25.550;2024-03-23T04:35:33;0.19;77.47
86008;SHT30;76587;41.936;25.550;2024-03-23T04:37:58;0.27;77.48
86008;SHT30;76587;41.936;25.550;2024-03-23T04:40:25;0.28;77.77
86008;SHT30;76587;41.936;25.550;2024-03-23T04:42:51;0.32;77.48
86008;SHT30;76587;41.936;25.550;2024-03-23T04:45:16;0.40;77.08
86008;SHT30;76587;41.936;25.550;2024-03-23T04:47:42;0.49;76.73
86008;SHT30;76587;41.936;25.550;2024-03-23T04:50:09;0.54;76.47
86008;SHT30;76587;41.936;25.550;2024-03-23T04:52:42;0.65;76.27
86008;SHT30;76587;41.936;25.550;2024-03-23T04:55:07;0.68;76.27
86008;SHT30;76587;41.936;25.550;2024-03-23T04:57:33;0.71;76.18
86008;SHT30;76587;41.936;25.550;2024-03-23T04:59:58;0.81;76.10
86008;SHT30;76587;41.936;25.550;2024-03-23T05:02:27;0.83;75.90
86008;SHT30;76587;41.936;25.550;2024-03-23T05:04:52;0.91;75.93
86008;SHT30;76587;41.936;25.550;2024-03-23T05:07:17;0.97;75.46
86008;SHT30;76587;41.936;25.550;2024-03-23T05:09:43;1.03;74.92
86008;SHT30;76587;41.936;25.550;2024-03-23T05:12:08;1.10;74.69
86008;SHT30;76587;41.936;25.550;2024-03-23T05:14:36;1.17;74.46
86008;SHT30;76587;41.936;25.550;2024-03-23T05:17:02;1.30;74.12
86008;SHT30;76587;41.936;25.550;2024-03-23T05:19:28;1.37;73.78
86008;SHT30;76587;41.936;25.550;2024-03-23T05:21:53;1.48;73.24
86008;SHT30;76587;41.936;25.550;2024-03-23T05:24:18;1.56;72.78
86008;SHT30;76587;41.936;25.550;2024-03-23T05:26:44;1.63;72.78
86008;SHT30;76587;41.936;25.550;2024-03-23T05:29:09;1.70;72.51
86008;SHT30;76587;41.936;25.550;2024-03-23T05:31:38;2.08;71.88
86008;SHT30;76587;41.936;25.550;2024-03-23T05:34:06;3.77;67.51
86008;SHT30;76587;41.936;25.550;2024-03-23T05:36:35;5.45;61.45
86008;SHT30;76587;41.936;25.550;2024-03-23T05:39:01;7.09;55.63
86008;SHT30;76587;41.936;25.550;2024-03-23T05:41:27;8.68;51.11
86008;SHT30;76587;41.936;25.550;2024-03-23T05:43:52;10.14;46.41
86008;SHT30;76587;41.936;25.550;2024-03-23T05:46:17;11.56;43.03
86008;SHT30;76587;41.936;25.550;2024-03-23T05:48:43;12.85;39.59
86008;SHT30;76587;41.936;25.550;2024-03-23T05:51:09;14.12;37.56
86008;SHT30;76587;41.936;25.550;2024-03-23T05:53:34;15.21;35.05
86008;SHT30;76587;41.936;25.550;2024-03-23T05:56:01;16.41;33.25
86008;SHT30;76587;41.936;25.550;2024-03-23T05:58:29;17.49;31.27
86008;SHT30;76587;41.936;25.550;2024-03-23T06:00:58;18.51;29.18
86008;SHT30;76587;41.936;25.550;2024-03-23T06:03:25;18.81;28.67
86008;SHT30;76587;41.936;25.550;2024-03-23T06:05:51;17.65;29.46
86008;SHT30;76587;41.936;25.550;2024-03-23T06:08:18;17.56;29.60
86008;SHT30;76587;41.936;25.550;2024-03-23T06:10:45;18.65;28.08
86008;SHT30;76587;41.936;25.550;2024-03-23T06:13:11;18.96;28.13
86008;SHT30;76587;41.936;25.550;2024-03-23T06:15:37;19.23;27.71
86008;SHT30;76587;41.936;25.550;2024-03-23T06:18:03;18.92;28.11
86008;SHT30;76587;41.936;25.550;2024-03-23T06:20:33;18.65;28.78
86008;SHT30;76587;41.936;25.550;2024-03-23T06:23:02;18.57;28.83
86008;SHT30;76587;41.936;25.550;2024-03-23T06:25:29;19.78;27.64
86008;SHT30;76587;41.936;25.550;2024-03-23T06:27:54;19.78;27.48
86008;SHT30;76587;41.936;25.550;2024-03-23T06:30:23;19.83;27.93
86008;SHT30;76587;41.936;25.550;2024-03-23T06:32:48;19.62;28.21
86008;SHT30;76587;41.936;25.550;2024-03-23T06:35:14;20.38;27.24
86008;SHT30;76587;41.936;25.550;2024-03-23T06:37:39;20.27;27.48
86008;SHT30;76587;41.936;25.550;2024-03-23T06:40:07;20.28;27.42
86008;SHT30;76587;41.936;25.550;2024-03-23T06:42:35;21.03;26.56
86008;SHT30;76587;41.936;25.550;2024-03-23T06:45:01;21.52;25.98
86008;SHT30;76587;41.936;25.550;2024-03-23T06:47:26;22.55;25.02
86008;SHT30;76587;41.936;25.550;2024-03-23T06:49:52;21.50;25.96
86008;SHT30;76587;41.936;25.550;2024-03-23T06:52:17;22.30;25.36
86008;SHT30;76587;41.936;25.550;2024-03-23T06:54:42;22.71;24.79
86008;SHT30;76587;41.936;25.550;2024-03-23T06:57:10;23.43;24.17
86008;SHT30;76587;41.936;25.550;2024-03-23T06:59:37;24.98;23.21
86008;SHT30;76587;41.936;25.550;2024-03-23T07:02:04;26.48;21.54
86008;SHT30;76587;41.936;25.550;2024-03-23T07:04:29;27.49;20.26
86008;SHT30;76587;41.936;25.550;2024-03-23T07:06:55;28.61;19.29
86008;SHT30;76587;41.936;25.550;2024-03-23T07:09:20;29.74;18.38
86008;SHT30;76587;41.936;25.550;2024-03-23T07:11:50;30.45;17.32
86008;SHT30;76587;41.936;25.550;2024-03-23T07:14:15;30.06;17.50
86008;SHT30;76587;41.936;25.550;2024-03-23T07:16:41;28.50;18.69
86008;SHT30;76587;41.936;25.550;2024-03-23T07:19:06;27.76;19.37
86008;SHT30;76587;41.936;25.550;2024-03-23T07:21:32;26.69;20.26
86008;SHT30;76587;41.936;25.550;2024-03-23T07:23:57;26.91;20.20
86008;SHT30;76587;41.936;25.550;2024-03-23T07:26:22;28.04;19.38
86008;SHT30;76587;41.936;25.550;2024-03-23T07:28:48;28.82;18.84
86008;SHT30;76587;41.936;25.550;2024-03-23T07:31:14;29.74;18.05
86008;SHT30;76587;41.936;25.550;2024-03-23T07:33:47;30.37;17.30
86008;SHT30;76587;41.936;25.550;2024-03-23T07:36:13;30.65;17.19
86008;SHT30;76587;41.936;25.550;2024-03-23T07:38:42;31.03;16.91
86008;SHT30;76587;41.936;25.550;2024-03-23T07:41:13;31.38;16.60
86008;SHT30;76587;41.936;25.550;2024-03-23T07:43:40;31.86;16.17
86008;SHT30;76587;41.936;25.550;2024-03-23T07:46:06;32.10;16.09
86008;SHT30;76587;41.936;25.550;2024-03-23T07:48:31;31.76;16.21
86008;SHT30;76587;41.936;25.550;2024-03-23T07:51:05;31.80;16.17
86008;SHT30;76587;41.936;25.550;2024-03-23T07:53:32;31.70;16.18
86008;SHT30;76587;41.936;25.550;2024-03-23T07:56:01;32.59;15.76
86008;SHT30;76587;41.936;25.550;2024-03-23T07:58:27;31.79;16.49
86008;SHT30;76587;41.936;25.550;2024-03-23T08:00:54;32.33;15.86
86008;SHT30;76587;41.936;25.550;2024-03-23T08:03:22;32.81;15.65
86008;SHT30;76587;41.936;25.550;2024-03-23T08:05:48;31.89;16.20
86008;SHT30;76587;41.936;25.550;2024-03-23T08:08:13;31.26;16.38
86008;SHT30;76587;41.936;25.550;2024-03-23T08:10:51;30.17;17.35
86008;SHT30;76587;41.936;25.550;2024-03-23T08:13:18;31.39;16.52
86008;SHT30;76587;41.936;25.550;2024-03-23T08:15:43;31.86;16.26
86008;SHT30;76587;41.936;25.550;2024-03-23T08:18:11;32.70;15.81
86008;SHT30;76587;41.936;25.550;2024-03-23T08:20:37;32.77;15.47
86008;SHT30;76587;41.936;25.550;2024-03-23T08:23:03;32.97;15.61
86008;SHT30;76587;41.936;25.550;2024-03-23T08:25:36;32.77;15.62
86008;SHT30;76587;41.936;25.550;2024-03-23T08:28:01;33.31;15.34
86008;SHT30;76587;41.936;25.550;2024-03-23T08:30:29;33.47;15.08
86008;SHT30;76587;41.936;25.550;2024-03-23T08:32:55;33.35;15.07
86008;SHT30;76587;41.936;25.550;2024-03-23T08:35:20;34.27;14.53
86008;SHT30;76587;41.936;25.550;2024-03-23T08:37:46;34.56;14.38
86008;SHT30;76587;41.936;25.550;2024-03-23T08:40:12;35.14;14.14
86008;SHT30;76587;41.936;25.550;2024-03-23T08:42:37;35.52;13.78
86008;SHT30;76587;41.936;25.550;2024-03-23T08:45:03;35.14;14.14
86008;SHT30;76587;41.936;25.550;2024-03-23T08:47:32;34.03;14.66
86008;SHT30;76587;41.936;25.550;2024-03-23T08:50:01;34.80;14.28
86008;SHT30;76587;41.936;25.550;2024-03-23T08:52:34;34.71;14.30
86008;SHT30;76587;41.936;25.550;2024-03-23T08:55:01;35.47;13.64
86008;SHT30;76587;41.936;25.550;2024-03-23T08:57:26;35.15;13.89
86008;SHT30;76587;41.936;25.550;2024-03-23T08:59:52;35.40;13.79
86008;SHT30;76587;41.936;25.550;2024-03-23T09:02:17;35.70;13.59
86008;SHT30;76587;41.936;25.550;2024-03-23T09:04:44;35.31;13.72
86008;SHT30;76587;41.936;25.550;2024-03-23T09:07:09;35.06;13.88
86008;SHT30;76587;41.936;25.550;2024-03-23T09:09:38;35.07;13.90
86008;SHT30;76587;41.936;25.550;2024-03-23T09:12:06;35.04;13.79
86008;SHT30;76587;41.936;25.550;2024-03-23T09:14:36;33.62;14.67
86008;SHT30;76587;41.936;25.550;2024-03-23T09:17:03;31.89;15.71
86008;SHT30;76587;41.936;25.550;2024-03-23T09:19:29;30.94;16.32
86008;SHT30;76587;41.936;25.550;2024-03-23T09:21:54;31.77;15.87
86008;SHT30;76587;41.936;25.550;2024-03-23T09:24:20;33.17;15.09
86008;SHT30;76587;41.936;25.550;2024-03-23T09:26:46;33.80;14.68
86008;SHT30;76587;41.936;25.550;2024-03-23T09:29:11;34.77;14.14
86008;SHT30;76587;41.936;25.550;2024-03-23T09:31:37;35.45;13.83
86008;SHT30;76587;41.936;25.550;2024-03-23T09:34:04;35.48;13.73
86008;SHT30;76587;41.936;25.550;2024-03-23T09:36:32;34.86;14.03
86008;SHT30;76587;41.936;25.550;2024-03-23T09:38:57;34.36;14.42
86008;SHT30;76587;41.936;25.550;2024-03-23T09:41:23;34.32;14.53
86008;SHT30;76587;41.936;25.550;2024-03-23T09:43:48;34.33;14.19
86008;SHT30;76587;41.936;25.550;2024-03-23T09:46:17;34.31;14.35
86008;SHT30;76587;41.936;25.550;2024-03-23T09:48:43;33.10;15.06
86008;SHT30;76587;41.936;25.550;2024-03-23T09:51:11;33.47;14.82
86008;SHT30;76587;41.936;25.550;2024-03-23T09:53:39;34.60;14.20
86008;SHT30;76587;41.936;25.550;2024-03-23T09:56:09;35.13;13.76
86008;SHT30;76587;41.936;25.550;2024-03-23T09:58:36;34.93;13.88
86008;SHT30;76587;41.936;25.550;2024-03-23T10:01:04;34.39;14.27
86008;SHT30;76587;41.936;25.550;2024-03-23T10:03:30;34.33;14.10
86008;SHT30;76587;41.936;25.550;2024-03-23T10:06:02;34.83;13.98
86008;SHT30;76587;41.936;25.550;2024-03-23T10:08:29;35.30;13.44
86008;SHT30;76587;41.936;25.550;2024-03-23T10:10:55;35.20;13.43
86008;SHT30;76587;41.936;25.550;2024-03-23T10:13:27;35.31;13.42
86008;SHT30;76587;41.936;25.550;2024-03-23T10:15:58;34.44;13.81
86008;SHT30;76587;41.936;25.550;2024-03-23T10:18:24;33.47;14.34
86008;SHT30;76587;41.936;25.550;2024-03-23T10:23:34;33.90;13.81
86008;SHT30;76587;41.936;25.550;2024-03-23T10:29:00;35.70;12.16
86008;SHT30;76587;41.936;25.550;2024-03-23T10:31:30;35.82;11.94
86008;SHT30;76587;41.936;25.550;2024-03-23T10:33:56;36.66;11.60
86008;SHT30;76587;41.936;25.550;2024-03-23T10:36:22;36.32;11.33
86008;SHT30;76587;41.936;25.550;2024-03-23T10:38:50;36.14;11.04
86008;SHT30;76587;41.936;25.550;2024-03-23T10:41:17;36.47;11.24
86008;SHT30;76587;41.936;25.550;2024-03-23T10:43:45;35.91;10.92
86008;SHT30;76587;41.936;25.550;2024-03-23T10:46:10;36.09;10.72
86008;SHT30;76587;41.936;25.550;2024-03-23T10:48:36;34.79;11.64
86008;SHT30;76587;41.936;25.550;2024-03-23T10:51:02;34.46;11.79
86008;SHT30;76587;41.936;25.550;2024-03-23T10:53:28;33.86;12.45
86008;SHT30;76587;41.936;25.550;2024-03-23T10:55:55;33.35;12.75
86008;SHT30;76587;41.936;25.550;2024-03-23T10:58:42;32.24;13.34
86008;SHT30;76587;41.936;25.550;2024-03-23T11:01:15;32.57;13.43
86008;SHT30;76587;41.936;25.550;2024-03-23T11:03:45;32.98;13.38
86008;SHT30;76587;41.936;25.550;2024-03-23T11:06:40;32.41;13.45
86008;SHT30;76587;41.936;25.550;2024-03-23T11:09:38;32.09;13.41
86008;SHT30;76587;41.936;25.550;2024-03-23T11:12:30;31.87;13.36
86008;SHT30;76587;41.936;25.550;2024-03-23T11:15:06;30.87;13.71
86008;SHT30;76587;41.936;25.550;2024-03-23T11:17:36;29.56;14.75
86008;SHT30;76587;41.936;25.550;2024-03-23T11:20:04;28.48;15.59
86008;SHT30;76587;41.936;25.550;2024-03-23T11:22:44;27.89;15.59
86008;SHT30;76587;41.936;25.550;2024-03-23T11:25:21;26.75;16.13
86008;SHT30;76587;41.936;25.550;2024-03-23T11:27:48;25.84;16.80
86008;SHT30;76587;41.936;25.550;2024-03-23T11:30:18;25.30;17.22
86008;SHT30;76587;41.936;25.550;2024-03-23T11:32:45;24.63;17.57
86008;SHT30;76587;41.936;25.550;2024-03-23T11:35:27;23.81;18.72
86008;SHT30;76587;41.936;25.550;2024-03-23T11:40:36;22.43;20.02
86008;SHT30;76587;41.936;25.550;2024-03-23T11:43:06;21.80;20.69
86008;SHT30;76587;41.936;25.550;2024-03-23T11:45:36;21.25;21.04
86008;SHT30;76587;41.936;25.550;2024-03-23T11:48:06;20.74;21.85
86008;SHT30;76587;41.936;25.550;2024-03-23T11:50:33;20.37;22.26
86008;SHT30;76587;41.936;25.550;2024-03-23T11:53:18;19.90;23.56
86008;SHT30;76587;41.936;25.550;2024-03-23T11:55:58;19.13;23.90
86008;SHT30;76587;41.936;25.550;2024-03-23T11:58:25;18.99;24.31
86008;SHT30;76587;41.936;25.550;2024-03-23T12:03:23;18.51;23.48
86008;SHT30;76587;41.936;25.550;2024-03-23T12:05:55;18.33;23.84
86008;SHT30;76587;41.936;25.550;2024-03-23T12:08:28;18.33;24.52
86008;SHT30;76587;41.936;25.550;2024-03-23T12:11:13;18.03;25.09
86008;SHT30;76587;41.936;25.550;2024-03-23T12:13:42;17.90;25.38
86008;SHT30;76587;41.936;25.550;2024-03-23T12:16:14;17.60;25.05
86008;SHT30;76587;41.936;25.550;2024-03-23T12:18:41;17.25;25.33
86008;SHT30;76587;41.936;25.550;2024-03-23T12:21:07;17.22;25.78
86008;SHT30;76587;41.936;25.550;2024-03-23T12:23:34;17.19;25.70
86008;SHT30;76587;41.936;25.550;2024-03-23T12:25:59;17.08;25.55
86008;SHT30;76587;41.936;25.550;2024-03-23T12:28:25;17.18;25.06
86008;SHT30;76587;41.936;25.550;2024-03-23T12:30:51;17.16;25.34
86008;SHT30;76587;41.936;25.550;2024-03-23T12:33:18;17.20;25.48
86008;SHT30;76587;41.936;25.550;2024-03-23T12:35:43;17.29;25.70
86008;SHT30;76587;41.936;25.550;2024-03-23T12:38:09;17.32;25.45
86008;SHT30;76587;41.936;25.550;2024-03-23T12:40:34;17.33;25.59
86008;SHT30;76587;41.936;25.550;2024-03-23T12:43:00;17.30;24.89
86008;SHT30;76587;41.936;25.550;2024-03-23T12:45:27;17.18;24.90
86008;SHT30;76587;41.936;25.550;2024-03-23T12:47:53;17.06;25.27
86008;SHT30;76587;41.936;25.550;2024-03-23T12:50:19;16.98;25.40
86008;SHT30;76587;41.936;25.550;2024-03-23T12:52:45;16.94;25.50
86008;SHT30;76587;41.936;25.550;2024-03-23T12:55:10;16.91;25.87
86008;SHT30;76587;41.936;25.550;2024-03-23T12:57:39;16.81;26.22
86008;SHT30;76587;41.936;25.550;2024-03-23T13:00:06;16.88;26.04
86008;SHT30;76587;41.936;25.550;2024-03-23T13:02:32;16.88;25.43
86008;SHT30;76587;41.936;25.550;2024-03-23T13:05:00;16.89;25.34
86008;SHT30;76587;41.936;25.550;2024-03-23T13:07:25;16.94;24.71
86008;SHT30;76587;41.936;25.550;2024-03-23T13:09:51;16.91;24.83
86008;SHT30;76587;41.936;25.550;2024-03-23T13:12:17;16.98;24.37
86008;SHT30;76587;41.936;25.550;2024-03-23T13:14:44;16.96;24.16
86008;SHT30;76587;41.936;25.550;2024-03-23T13:17:10;16.91;23.95
86008;SHT30;76587;41.936;25.550;2024-03-23T13:19:35;16.95;24.22
86008;SHT30;76587;41.936;25.550;2024-03-23T13:22:01;16.99;24.23
86008;SHT30;76587;41.936;25.550;2024-03-23T13:24:30;17.04;24.55
86008;SHT30;76587;41.936;25.550;2024-03-23T13:26:56;17.06;24.97
86008;SHT30;76587;41.936;25.550;2024-03-23T13:29:23;17.08;25.28
86008;SHT30;76587;41.936;25.550;2024-03-23T13:31:49;17.12;24.54
86008;SHT30;76587;41.936;25.550;2024-03-23T13:34:16;17.14;24.51
86008;SHT30;76587;41.936;25.550;2024-03-23T13:36:42;17.15;24.72
86008;SHT30;76587;41.936;25.550;2024-03-23T13:39:08;17.15;25.22
86008;SHT30;76587;41.936;25.550;2024-03-23T13:41:40;17.12;25.53
86008;SHT30;76587;41.936;25.550;2024-03-23T13:44:07;17.09;25.44
86008;SHT30;76587;41.936;25.550;2024-03-23T13:46:33;17.09;25.59
86008;SHT30;76587;41.936;25.550;2024-03-23T13:49:00;17.09;25.46
86008;SHT30;76587;41.936;25.550;2024-03-23T13:51:26;17.12;25.52
86008;SHT30;76587;41.936;25.550;2024-03-23T13:53:55;17.11;25.44
86008;SHT30;76587;41.936;25.550;2024-03-23T13:56:24;17.16;25.60
86008;SHT30;76587;41.936;25.550;2024-03-23T13:58:50;17.15;25.34
86008;SHT30;76587;41.936;25.550;2024-03-23T14:01:15;17.20;25.18
86008;SHT30;76587;41.936;25.550;2024-03-23T14:03:44;17.16;26.44
86008;SHT30;76587;41.936;25.550;2024-03-23T14:06:10;17.23;26.63
86008;SHT30;76587;41.936;25.550;2024-03-23T14:08:36;17.15;26.61
86008;SHT30;76587;41.936;25.550;2024-03-23T14:11:08;17.16;26.99
86008;SHT30;76587;41.936;25.550;2024-03-23T14:13:36;17.18;26.41
86008;SHT30;76587;41.936;25.550;2024-03-23T14:16:05;17.20;25.76
86008;SHT30;76587;41.936;25.550;2024-03-23T14:18:30;17.25;25.94
86008;SHT30;76587;41.936;25.550;2024-03-23T14:21:00;17.32;26.66
86008;SHT30;76587;41.936;25.550;2024-03-23T14:23:26;17.29;26.67
86008;SHT30;76587;41.936;25.550;2024-03-23T14:25:53;17.26;26.60
86008;SHT30;76587;41.936;25.550;2024-03-23T14:28:19;17.29;26.24
86008;SHT30;76587;41.936;25.550;2024-03-23T14:30:45;17.16;26.44
86008;SHT30;76587;41.936;25.550;2024-03-23T14:33:15;17.06;26.95
86008;SHT30;76587;41.936;25.550;2024-03-23T14:38:21;17.14;27.04
86008;SHT30;76587;41.936;25.550;2024-03-23T14:40:49;17.06;26.71
86008;SHT30;76587;41.936;25.550;2024-03-23T14:43:15;17.01;27.02
86008;SHT30;76587;41.936;25.550;2024-03-23T14:48:30;17.05;26.81
86008;SHT30;76587;41.936;25.550;2024-03-23T14:50:56;17.04;27.10
86008;SHT30;76587;41.936;25.550;2024-03-23T14:53:24;17.02;27.40
86008;SHT30;76587;41.936;25.550;2024-03-23T14:55:49;17.04;27.23
86008;SHT30;76587;41.936;25.550;2024-03-23T14:58:15;17.04;27.31
86008;SHT30;76587;41.936;25.550;2024-03-23T15:00:41;16.99;27.67
86008;SHT30;76587;41.936;25.550;2024-03-23T15:03:06;16.98;27.53
86008;SHT30;76587;41.936;25.550;2024-03-23T15:05:34;16.95;27.56
86008;SHT30;76587;41.936;25.550;2024-03-23T15:07:59;16.91;27.09
86008;SHT30;76587;41.936;25.550;2024-03-23T15:10:25;16.82;26.70
86008;SHT30;76587;41.936;25.550;2024-03-23T15:12:50;16.86;26.94
86008;SHT30;76587;41.936;25.550;2024-03-23T15:15:16;16.84;27.00
86008;SHT30;76587;41.936;25.550;2024-03-23T15:17:41;16.82;26.98
86008;SHT30;76587;41.936;25.550;2024-03-23T15:20:10;16.76;27.06
86008;SHT30;76587;41.936;25.550;2024-03-23T15:22:37;16.74;27.26
86008;SHT30;76587;41.936;25.550;2024-03-23T15:25:02;16.78;27.12
86008;SHT30;76587;41.936;25.550;2024-03-23T15:27:31;16.74;26.83
86008;SHT30;76587;41.936;25.550;2024-03-23T15:29:56;16.69;27.27
86008;SHT30;76587;41.936;25.550;2024-03-23T15:32:23;16.65;27.21
86008;SHT30;76587;41.936;25.550;2024-03-23T15:34:48;16.68;26.64
86008;SHT30;76587;41.936;25.550;2024-03-23T15:37:13;16.61;27.14
86008;SHT30;76587;41.936;25.550;2024-03-23T15:39:40;16.58;26.81
86008;SHT30;76587;41.936;25.550;2024-03-23T15:42:07;16.51;26.49
86008;SHT30;76587;41.936;25.550;2024-03-23T15:44:32;16.40;26.53
86008;SHT30;76587;41.936;25.550;2024-03-23T15:46:58;16.41;26.65
86008;SHT30;76587;41.936;25.550;2024-03-23T15:49:23;16.32;26.44
86008;SHT30;76587;41.936;25.550;2024-03-23T15:51:48;16.21;26.58
86008;SHT30;76587;41.936;25.550;2024-03-23T15:54:14;16.13;26.37
86008;SHT30;76587;41.936;25.550;2024-03-23T15:56:39;16.14;26.24
86008;SHT30;76587;41.936;25.550;2024-03-23T15:59:05;16.07;26.10
86008;SHT30;76587;41.936;25.550;2024-03-23T16:01:33;15.96;26.38
86008;SHT30;76587;41.936;25.550;2024-03-23T16:04:01;15.87;26.69
86008;SHT30;76587;41.936;25.550;2024-03-23T16:06:27;15.82;26.47
86008;SHT30;76587;41.936;25.550;2024-03-23T16:08:55;15.79;26.44
86008;SHT30;76587;41.936;25.550;2024-03-23T16:11:20;15.76;26.37
86008;SHT30;76587;41.936;25.550;2024-03-23T16:13:46;15.65;26.73
86008;SHT30;76587;41.936;25.550;2024-03-23T16:16:12;15.52;27.05
86008;SHT30;76587;41.936;25.550;2024-03-23T16:18:39;15.49;27.42
86008;SHT30;76587;41.936;25.550;2024-03-23T16:21:06;15.43;27.62
86008;SHT30;76587;41.936;25.550;2024-03-23T16:23:32;15.43;27.52
86008;SHT30;76587;41.936;25.550;2024-03-23T16:25:58;15.35;27.53
86008;SHT30;76587;41.936;25.550;2024-03-23T16:28:25;15.33;27.34
86008;SHT30;76587;41.936;25.550;2024-03-23T16:33:26;15.02;30.24